WetterOnline ( http://www.wetteronline.de )

Wetter aktuell Cuxhaven

Aktuelles Wetter: Cuxhaven (12m)

6-stündlich | Neueste Meldungen
Ortszeit Temperatur Wetter
Mo, 23.04. 14:00 13.1° C wolkig
Mo, 23.04. 8:00 11.0° C bewölkt
Mo, 23.04. 2:00 14.9° C wolkig
So, 22.04. 20:00 16.5° C fast wolkenlos
So, 22.04. 14:00 16.2° C leicht bewölkt
So, 22.04. 8:00 6.7° C Nebel
So, 22.04. 2:00 7.5° C bedeckt
Sa, 21.04. 20:00 12.3° C wolkenlos
Ortszeit Temperatur Wetter
Mo, 23.04. 15:10 13.0° C wolkenlos
Mo, 23.04. 15:00 13.4° C fast wolkenlos
Mo, 23.04. 14:50 13.4° C fast wolkenlos
Mo, 23.04. 14:40 12.8° C leicht bewölkt
Mo, 23.04. 14:30 13.1° C wolkig
Mo, 23.04. 14:20 13.1° C wolkig
Mo, 23.04. 14:00 13.1° C wolkig
Mo, 23.04. 13:30 13.7° C bedeckt
Mo, 23.04. 13:00 14.1° C leicht bewölkt
Mo, 23.04. 12:30 13.9° C leicht bewölkt
Mo, 23.04. 12:00 13.3° C leicht bewölkt
Ortszeit Relative Feuchte Sichtweite
Mo, 23.04. 14:00 69% 7 km
Mo, 23.04. 8:00 90% 2.4 km
Mo, 23.04. 2:00 89% 6 km
So, 22.04. 20:00 63% 20 km
So, 22.04. 14:00 60% 4.8 km
So, 22.04. 8:00 100% 100 m
So, 22.04. 2:00 98% 7 km
Sa, 21.04. 20:00 64% 30 km
Ortszeit Relative Feuchte Sichtweite
Mo, 23.04. 15:10 72% -
Mo, 23.04. 15:00 68% 8 km
Mo, 23.04. 14:50 68% -
Mo, 23.04. 14:40 71% -
Mo, 23.04. 14:30 71% 6 km
Mo, 23.04. 14:20 71% -
Mo, 23.04. 14:00 69% 7 km
Mo, 23.04. 13:30 68% 7 km
Mo, 23.04. 13:00 59% 6 km
Mo, 23.04. 12:30 62% 7 km
Mo, 23.04. 12:00 70% 15 km
Ortszeit Niederschlagsmenge Niederschlagsart
Mo, 23.04. 14:00 0.0 l/m2 in 6 Std. -
Mo, 23.04. 8:00 2 l/m2 in 12 Std. -
Mo, 23.04. 2:00 2 l/m2 in 6 Std. Regen
So, 22.04. 20:00 0.0 l/m2 in 12 Std. -
So, 22.04. 14:00 0.0 l/m2 in 6 Std. -
So, 22.04. 8:00 0.0 l/m2 in 12 Std. -
So, 22.04. 2:00 0.0 l/m2 in 6 Std. -
Sa, 21.04. 20:00 0.0 l/m2 in 12 Std. -
Ortszeit Niederschlagsmenge Niederschlagsart
Mo, 23.04. 15:10 keine Meldung -
Mo, 23.04. 15:00 0.0 l/m2 in 1 Std. -
Mo, 23.04. 14:50 keine Meldung -
Mo, 23.04. 14:40 keine Meldung -
Mo, 23.04. 14:30 0.0 l/m2 in 1 Std. -
Mo, 23.04. 14:20 keine Meldung -
Mo, 23.04. 14:00 0.0 l/m2 in 1 Std. -
Mo, 23.04. 13:30 0.0 l/m2 in 1 Std. -
Mo, 23.04. 13:00 0.0 l/m2 in 1 Std. -
Mo, 23.04. 12:30 0.0 l/m2 in 1 Std. -
Mo, 23.04. 12:00 0.0 l/m2 in 1 Std. -
Ortszeit Stärke Spitze Richtung
km/h Bft. km/h Grad Sektor
Mo, 23.04. 14:00 36 5 54 280° W
Mo, 23.04. 8:00 22 4 46 270° W
Mo, 23.04. 2:00 7 2 40 170° S
So, 22.04. 20:00 26 4 35 110° O
So, 22.04. 14:00 28 4 31 90° O
So, 22.04. 8:00 11 2 18 120° SO
So, 22.04. 2:00 4 1 14 330° NW
Sa, 21.04. 20:00 9 2 22 310° NW
Ortszeit Stärke Spitze Richtung
km/h Bft. km/h Grad Sektor
Mo, 23.04. 15:10 32 5 - 270° W
Mo, 23.04. 15:00 31 5 50 280° W
Mo, 23.04. 14:50 31 5 - 280° W
Mo, 23.04. 14:40 35 5 - 280° W
Mo, 23.04. 14:30 32 5 50 280° W
Mo, 23.04. 14:20 32 5 - 280° W
Mo, 23.04. 14:00 36 5 54 280° W
Mo, 23.04. 13:30 31 5 52 270° W
Mo, 23.04. 13:00 36 5 54 260° W
Mo, 23.04. 12:30 29 5 43 270° W
Mo, 23.04. 12:00 29 5 47 270° W
Ortszeit Untergrenze Bedeckung Gattung
total tief tief mittel hoch
Mo, 23.04. 14:00 6300 m 7/8 7/8 - - -
Mo, 23.04. 8:00 210 m 7/8 7/8 - - -
Mo, 23.04. 2:00 8400 m 8/8 0/8 - - -
So, 22.04. 20:00 9000 m 1/8 0/8 - - -
So, 22.04. 14:00 3000 m 2/8 1/8 - - -
So, 22.04. 8:00 <30 m 8/8 8/8 - - -
So, 22.04. 2:00 9000 m 8/8 - - - -
Sa, 21.04. 20:00 - 0/8 0/8 - - -
Ortszeit Bedeckungsgrad in Achtel und Wolkenuntergrenze
Mo, 23.04. 15:10 keine Wolken
Mo, 23.04. 15:00 2(7800m)
Mo, 23.04. 14:50 2(7800m) 2(8700m)
Mo, 23.04. 14:40 5(7800m) 5(8700m)
Mo, 23.04. 14:30 2(6300m) 7(7500m) 7(8700m)
Mo, 23.04. 14:20 2(6300m) 7(7500m) 7(8700m)
Mo, 23.04. 14:00 7(6300m) 7(7500m)
Mo, 23.04. 13:30 3(5700m) 8(6300m)
Mo, 23.04. 13:00 2(6600m) 4(8100m)
Mo, 23.04. 12:30 3(8400m) 2(8400m)
Mo, 23.04. 12:00 3(1140m) 4(1440m)
Ortszeit Luftdruck NN (hPa) Tendenz (hPa in 3 Std.)
Mo, 23.04. 14:00 1013 + 1,1
Mo, 23.04. 8:00 1009 + 1,6
Mo, 23.04. 2:00 1008 - 1,4
So, 22.04. 20:00 1009 - 1,7
So, 22.04. 14:00 1013 - 2,6
So, 22.04. 8:00 1018 - 0,9
So, 22.04. 2:00 1020 - 0,9
Sa, 21.04. 20:00 1021 - 1,2
Ortszeit Luftdruck NN (hPa) Tendenz (hPa in 3 Std.)
Mo, 23.04. 15:10 1013 keine Meldung
Mo, 23.04. 15:00 1013 + 0,8
Mo, 23.04. 14:50 1013 keine Meldung
Mo, 23.04. 14:40 1013 keine Meldung
Mo, 23.04. 14:30 1013 + 1,2
Mo, 23.04. 14:20 1013 keine Meldung
Mo, 23.04. 14:00 1013 + 1,1
Mo, 23.04. 13:30 1013 + 1,3
Mo, 23.04. 13:00 1013 + 1,9
Mo, 23.04. 12:30 1013 + 2,2
Mo, 23.04. 12:00 1012 + 2,3
Ortszeit Schneehöhe (cm)
Mo, 23.04. 14:00 0
Mo, 23.04. 8:00 0
Mo, 23.04. 2:00 0
So, 22.04. 20:00 0
So, 22.04. 14:00 0
So, 22.04. 8:00 0
So, 22.04. 2:00 0
Sa, 21.04. 20:00 0
Ortszeit Schneehöhe (cm)
Mo, 23.04. 15:10 0
Mo, 23.04. 15:00 0
Mo, 23.04. 14:50 0
Mo, 23.04. 14:40 0
Mo, 23.04. 14:30 0
Mo, 23.04. 14:20 0
Mo, 23.04. 14:00 0
Mo, 23.04. 13:30 0
Mo, 23.04. 13:00 0
Mo, 23.04. 12:30 0
Mo, 23.04. 12:00 0
Link zu dieser Seite / Seite empfehlen

Das Wetter in ...